Terminal Aerodrome Forecast
Issued by NWS Topeka, KS

Home | Current Version | Previous Version | Graphics & Text | Print | Product List | Glossary On
Versions: 1 2 3 4 5 6 7 8 9 10 11 12 13 14 15 16 17 18 19 20 21 22 23
946
FTUS43 KTOP 241122
TAFTOP
TAF
KTOP 241122Z 2412/2512 10007KT 6SM TSRA BR SCT015 OVC050CB
      TEMPO 2412/2415 4SM TSRA
     FM241600 13009KT P6SM SCT025 BKN150
     FM242100 16010KT P6SM SCT035
     FM250800 17010KT P6SM VCTS SCT035CB=

USA.gov is the U.S. government's official web portal to all federal, state and local government web resources and services.